CJV2 weather

Neilburg Airport
Neilburg, Saskatchewan, Canada

Public forecast

Using degrees Celsius for public forecast. Weather courtesy of forecast.io.

METAR (pilot weather report)

Closest report is Lloydminster Airport, 32.7 nm (60.5 km) NNW. Retrieved 2019/04/21 06:00 UTC (16 minutes ago):

CYLL 210600Z AUTO 31007KT 9SM CLR 02/M03 A3000 RMK SLP181

TAF (pilot weather forecast)

Closest forecast is Lloydminster Airport, 32.7 nm (60.5 km) NNW. Retrieved 2019/04/21 06:42 UTC (0 seconds ago):

TAF CYLL 210539Z 2106/2118 28008KT P6SM FEW080 FM211700 32012KT P6SM FEW070 RMK FCST BASED ON AUTO OBS. NXT FCST BY 211200Z